Wyandotte, California
Current Conditions -  °F | °C
As of 4:53 PM on Wednesday 17 Dec 2014 (Local Time) from KOVE Reporting Station
Broken Clouds Broken Clouds  
Wind Chill: 53°   Ceiling: 11000
Heat Index: 53°   Visibility: 10mi
Dew Point: 47°   Wind: 10mph
Humidity: 80%   Direction: 140°SE
Pressure: 30.04"   Gusts: NA
Location:  39.5324°N, 121.648°W
Report Text: KOVE 180053Z AUTO 14009KT 10SM FEW055 BKN110 12/08 A3004 RMK AO2 SLP175 T01170083
Loading
Personal Weather Stations






























Interactive Weather Map New forecast layout! Learn more

10-Day Weather Forecast

Advertisements
Track Severe Weather on mobile